Terminal Aerodrome Forecast
Issued by NWS

Home | Current Version | Previous Version | Graphics & Text | Print | Product List | Glossary Off
Versions: 1 2 3 4 5 6 7 8 9 10 11 12 13 14 15 16 17

000
FTUS43 KDDC 181356 AAA
TAFGCK
TAF AMD
KGCK 181356Z 1814/1912 34022G32KT P6SM SCT020 BKN040 OVC070
     FM182100 34017KT P6SM SKC
     FM190000 33007KT P6SM SKC=

USA.gov is the U.S. government's official web portal to all federal, state and local government web resources and services.